Aspen — V7QE9 — position and weather

sailwx.info

Track history (hours):
 
Tides and Currents Weather Stations Pressure Air Temp Water Temp Dewpoint Dewpoint Depression Visibility Wind Speed Wind Dir Waves Ship Positions

Aspen

Last reported at 2017-Dec-12 15:14 UTC. Time now 2017-Dec-18 16:54 UTC.
Position N 36°16' E 026°58'.

Length 190 m; draft 12.5 m.

Type: Cargo ship. MMSI: 538006689.

Date/timePositionNaut miles runAvg speedWind from/ knotsBaromVisibWave heightAir tempDewpointWater temp
2017-Dec-12 15:14N 36°16' E 026°58'812.7
2017-Dec-12 14:35N 36°22' E 026°51'612.4
2017-Dec-12 14:08N 36°26' E 026°46'212.0
2017-Dec-12 14:00N 36°27' E 026°45'611.7
2017-Dec-12 13:31N 36°32' E 026°40'811.7
2017-Dec-12 12:50N 36°38' E 026°34'411.7
2017-Dec-12 12:31N 36°41' E 026°31'611.4
2017-Dec-12 12:01N 36°45' E 026°26'612.1
2017-Dec-12 11:31N 36°49' E 026°21'612.1
2017-Dec-12 11:01N 36°54' E 026°16'612.2
2017-Dec-12 10:31N 36°59' E 026°12'612.1
2017-Dec-12 10:01N 37°04' E 026°08'612.1
2017-Dec-12 09:31N 37°09' E 026°04'611.9
2017-Dec-12 09:01N 37°15' E 026°01'612.0
2017-Dec-12 08:31N 37°20' E 025°57'611.9
2017-Dec-12 08:01N 37°25' E 025°53'611.3
2017-Dec-12 07:31N 37°30' E 025°50'710.5
2017-Dec-12 06:52N 37°37' E 025°49'410.5
2017-Dec-12 06:28N 37°41' E 025°49'510.3
2017-Dec-12 06:00N 37°46' E 025°48'610.2
2017-Dec-12 05:25N 37°52' E 025°47'  
2017-Dec-07 15:48N 46°16' E 030°54'710.4
2017-Dec-07 15:09N 46°22' E 030°55'310.7
2017-Dec-07 14:54N 46°25' E 030°55'510.7
2017-Dec-07 14:28N 46°30' E 030°55'  
Track history (hours):
 
Tides and Currents Weather Stations Pressure Air Temp Water Temp Dewpoint Dewpoint Depression Visibility Wind Speed Wind Dir Waves Ship Positions

Aspen

Last reported at 2017-Dec-12 15:14 UTC. Time now 2017-Dec-18 16:54 UTC.
Position N 36°16' E 026°58'.

Length 190 m; draft 12.5 m.

Type: Cargo ship. MMSI: 538006689.

Date/timePositionNaut miles runAvg speedWind from/ knotsBaromVisibWave heightAir tempDewpointWater temp
2017-Dec-12 15:14N 36°16' E 026°58'812.7
2017-Dec-12 14:35N 36°22' E 026°51'612.4
2017-Dec-12 14:08N 36°26' E 026°46'212.0
2017-Dec-12 14:00N 36°27' E 026°45'611.7
2017-Dec-12 13:31N 36°32' E 026°40'811.7
2017-Dec-12 12:50N 36°38' E 026°34'411.7
2017-Dec-12 12:31N 36°41' E 026°31'611.4
2017-Dec-12 12:01N 36°45' E 026°26'612.1
2017-Dec-12 11:31N 36°49' E 026°21'612.1
2017-Dec-12 11:01N 36°54' E 026°16'612.2
2017-Dec-12 10:31N 36°59' E 026°12'612.1
2017-Dec-12 10:01N 37°04' E 026°08'612.1
2017-Dec-12 09:31N 37°09' E 026°04'611.9
2017-Dec-12 09:01N 37°15' E 026°01'612.0
2017-Dec-12 08:31N 37°20' E 025°57'611.9
2017-Dec-12 08:01N 37°25' E 025°53'611.3
2017-Dec-12 07:31N 37°30' E 025°50'710.5
2017-Dec-12 06:52N 37°37' E 025°49'410.5
2017-Dec-12 06:28N 37°41' E 025°49'510.3
2017-Dec-12 06:00N 37°46' E 025°48'610.2
2017-Dec-12 05:25N 37°52' E 025°47'  
2017-Dec-07 15:48N 46°16' E 030°54'710.4
2017-Dec-07 15:09N 46°22' E 030°55'310.7
2017-Dec-07 14:54N 46°25' E 030°55'510.7
2017-Dec-07 14:28N 46°30' E 030°55'  

Dump ship's entire track history